Time;durP1;ratioP1;P1;durP2;ratioP2;P2;SDS_P1;SDS_P2;PMS_P1;PMS_P2;Temp;Humidity;BMP_temperature;BMP_pressure;BME280_temperature;BME280_humidity;BME280_pressure;Samples;Min_cycle;Max_cycle;Signal;HPM_P1;HPM_P2
2023/03/30 18:52:36;;;;;;;38.10;8.45;;;12.30;99.90;;;;;;6132012;22;1240980;-79
2023/03/30 18:55:02;;;;;;;33.85;9.10;;;12.20;99.90;;;;;;6101807;23;20819;-79
2023/03/30 18:57:27;;;;;;;39.08;8.90;;;12.20;99.90;;;;;;6126401;23;20418;-80
2023/03/30 18:59:53;;;;;;;37.38;7.78;;;12.20;99.90;;;;;;6101467;23;20026;-79
2023/03/30 19:02:19;;;;;;;39.33;9.27;;;12.30;99.90;;;;;;6126105;23;20477;-79
2023/03/30 19:04:44;;;;;;;39.55;8.57;;;12.20;99.90;;;;;;6152651;23;20014;-79
2023/03/30 19:07:10;;;;;;;39.17;7.40;;;12.50;99.90;;;;;;6151814;23;20013;-79
2023/03/30 19:09:36;;;;;;;40.67;10.23;;;12.20;99.90;;;;;;6151978;23;20397;-78
2023/03/30 19:12:02;;;;;;;44.97;11.95;;;12.20;99.90;;;;;;6126122;23;20041;-78
2023/03/30 19:14:27;;;;;;;36.45;8.25;;;12.50;99.90;;;;;;6126082;23;20014;-79
2023/03/30 19:16:53;;;;;;;35.38;7.90;;;12.20;99.90;;;;;;6125865;23;20018;-79
2023/03/30 19:19:18;;;;;;;35.08;7.88;;;12.10;99.90;;;;;;6125593;23;20463;-79
2023/03/30 19:21:45;;;;;;;35.20;7.93;;;12.10;99.90;;;;;;6152060;23;20016;-78
2023/03/30 19:24:12;;;;;;;39.20;8.38;;;12.20;99.90;;;;;;6101718;23;20024;-79
2023/03/30 19:26:41;;;;;;;35.83;8.50;;;12.10;99.90;;;;;;6125884;23;20020;-78
2023/03/30 19:29:06;;;;;;;36.25;8.05;;;12.10;99.90;;;;;;6101005;23;20026;-79
2023/03/30 19:31:35;;;;;;;33.97;8.70;;;12.10;99.90;;;;;;6125895;23;20128;-78
2023/03/30 19:34:00;;;;;;;31.77;6.93;;;12.10;99.90;;;;;;6125940;23;20021;-78
2023/03/30 19:36:26;;;;;;;32.30;7.22;;;12.00;99.90;;;;;;6151931;23;20044;-79
2023/03/30 19:38:52;;;;;;;34.45;8.02;;;12.00;99.90;;;;;;6101182;23;20045;-78
2023/03/30 19:41:17;;;;;;;32.05;7.18;;;12.00;99.90;;;;;;6126701;23;20039;-78
2023/03/30 19:43:44;;;;;;;32.45;7.10;;;11.90;99.90;;;;;;6152213;23;20072;-78
2023/03/30 19:46:10;;;;;;;30.52;7.43;;;12.00;99.90;;;;;;6126155;23;20023;-79
2023/03/30 19:48:35;;;;;;;35.10;7.38;;;12.00;99.90;;;;;;6125301;23;20088;-79
2023/03/30 19:51:01;;;;;;;34.30;7.88;;;11.90;99.90;;;;;;6125304;23;20025;-79
2023/03/30 19:53:26;;;;;;;29.63;6.60;;;11.90;99.90;;;;;;6121523;23;20041;-79
2023/03/30 19:55:53;;;;;;;26.88;6.47;;;12.00;99.90;;;;;;6121612;23;20045;-78
2023/03/30 19:58:18;;;;;;;29.35;7.13;;;12.00;99.90;;;;;;6122035;23;20022;-78
2023/03/30 20:00:45;;;;;;;31.73;7.00;;;12.00;99.90;;;;;;6122010;23;20006;-78
2023/03/30 20:03:11;;;;;;;27.58;7.40;;;11.90;99.90;;;;;;6123817;23;20014;-78
2023/03/30 20:05:37;;;;;;;30.33;6.50;;;11.90;99.90;;;;;;6121620;23;20326;-78
2023/03/30 20:08:03;;;;;;;26.70;6.53;;;11.80;99.90;;;;;;6123633;23;20021;-78
2023/03/30 20:10:29;;;;;;;35.45;6.95;;;11.80;99.90;;;;;;6122383;23;20014;-78
2023/03/30 20:12:54;;;;;;;25.85;6.15;;;11.70;99.90;;;;;;6122143;23;20337;-78
2023/03/30 20:15:22;;;;;;;30.85;6.55;;;11.70;99.90;;;;;;6122165;23;20072;-78
2023/03/30 20:17:47;;;;;;;26.90;6.45;;;11.60;99.90;;;;;;6123299;23;20056;-78
2023/03/30 20:20:15;;;;;;;29.75;6.57;;;11.60;99.90;;;;;;6124292;23;20018;-78
2023/03/30 20:22:43;;;;;;;25.63;6.82;;;11.50;99.90;;;;;;6125845;23;20085;-78
2023/03/30 20:25:11;;;;;;;24.77;6.53;;;11.40;99.90;;;;;;6123911;23;20399;-78
2023/03/30 20:27:37;;;;;;;32.60;6.68;;;11.40;99.90;;;;;;6099662;23;20018;-78
2023/03/30 20:30:04;;;;;;;24.17;5.80;;;11.40;99.90;;;;;;6125500;23;20013;-79
2023/03/30 20:32:30;;;;;;;29.73;6.38;;;11.30;99.90;;;;;;6123866;23;20010;-79
2023/03/30 20:34:56;;;;;;;27.63;6.25;;;11.30;99.90;;;;;;6098767;23;20100;-79
2023/03/30 20:37:22;;;;;;;28.85;6.70;;;11.20;99.90;;;;;;6099397;23;20056;-80
2023/03/30 20:39:50;;;;;;;23.50;5.80;;;11.20;99.90;;;;;;6099434;23;20090;-80
2023/03/30 20:42:24;;;;;;;24.48;6.55;;;11.20;99.90;;;;;;6123983;23;20085;-79
2023/03/30 20:44:50;;;;;;;29.75;6.43;;;11.10;99.90;;;;;;6099493;23;20010;-79
2023/03/30 20:47:17;;;;;;;30.23;6.85;;;11.10;99.90;;;;;;6124085;23;20084;-79
2023/03/30 20:49:43;;;;;;;20.08;5.40;;;11.10;99.90;;;;;;6122837;23;20014;-79
2023/03/30 20:52:10;;;;;;;32.22;7.20;;;11.10;99.90;;;;;;6123738;23;20366;-79
2023/03/30 20:54:36;;;;;;;27.20;6.70;;;11.10;99.90;;;;;;6125715;23;20077;-79
2023/03/30 20:57:03;;;;;;;27.17;6.57;;;11.10;99.90;;;;;;6099300;23;20049;-79
2023/03/30 20:59:28;;;;;;;35.05;6.35;;;11.10;99.90;;;;;;6124179;23;20014;-78
2023/03/30 21:01:55;;;;;;;34.40;6.72;;;11.10;99.90;;;;;;6124140;23;20061;-79
2023/03/30 21:04:21;;;;;;;28.23;5.80;;;11.10;99.90;;;;;;6124058;23;20060;-80
2023/03/30 21:06:50;;;;;;;26.10;6.88;;;11.20;99.90;;;;;;6100362;23;20139;-79
2023/03/30 21:09:16;;;;;;;28.05;6.68;;;11.20;99.90;;;;;;6126484;23;20056;-79
2023/03/30 21:11:42;;;;;;;29.42;5.78;;;11.20;99.90;;;;;;6123187;23;20013;-79
2023/03/30 21:14:11;;;;;;;27.30;6.72;;;11.20;99.90;;;;;;6125347;23;20492;-79
2023/03/30 21:16:37;;;;;;;24.77;5.72;;;11.20;99.90;;;;;;6098421;23;20429;-78
2023/03/30 21:19:04;;;;;;;26.33;6.28;;;11.20;99.90;;;;;;6123182;23;20056;-79
2023/03/30 21:21:32;;;;;;;26.20;5.95;;;11.10;99.90;;;;;;6099049;23;20014;-78
2023/03/30 21:23:59;;;;;;;26.02;6.78;;;11.20;99.90;;;;;;6098864;23;20025;-78
2023/03/30 21:26:25;;;;;;;24.33;5.93;;;11.00;99.90;;;;;;6123233;23;20014;-78
2023/03/30 21:28:51;;;;;;;25.65;6.00;;;10.90;99.90;;;;;;6122987;23;20014;-78
2023/03/30 21:31:17;;;;;;;27.27;6.80;;;11.00;99.90;;;;;;6122572;23;20021;-79
2023/03/30 21:33:43;;;;;;;25.05;5.88;;;10.90;99.90;;;;;;6125232;23;20337;-79
2023/03/30 21:36:09;;;;;;;27.55;6.70;;;10.90;99.90;;;;;;6125225;23;20025;-78
2023/03/30 21:38:35;;;;;;;24.85;5.32;;;10.90;99.90;;;;;;6125142;23;20029;-79
2023/03/30 21:41:06;;;;;;;29.67;6.55;;;11.00;99.90;;;;;;6123127;23;20014;-78
2023/03/30 21:43:36;;;;;;;20.17;5.35;;;10.90;99.90;;;;;;6098724;23;20049;-79
2023/03/30 21:46:04;;;;;;;29.13;5.88;;;10.90;99.90;;;;;;6098141;23;20085;-79
2023/03/30 21:48:32;;;;;;;25.80;5.85;;;10.90;99.90;;;;;;6098702;23;20010;-79
2023/03/30 21:51:00;;;;;;;30.90;6.32;;;11.00;99.90;;;;;;6098702;23;20014;-79
2023/03/30 21:53:27;;;;;;;27.65;6.00;;;10.90;99.90;;;;;;6123046;23;20022;-78
2023/03/30 21:55:53;;;;;;;28.55;6.22;;;11.00;99.90;;;;;;6123546;23;20014;-78
2023/03/30 21:58:19;;;;;;;29.73;5.82;;;10.90;99.90;;;;;;6123146;23;20010;-79
2023/03/30 22:00:45;;;;;;;25.05;5.53;;;10.90;99.90;;;;;;6124365;23;20028;-79
2023/03/30 22:03:15;;;;;;;32.35;6.90;;;10.90;99.90;;;;;;6098298;23;20437;-78
2023/03/30 22:05:43;;;;;;;32.13;6.88;;;10.80;99.90;;;;;;6125002;23;20081;-78
2023/03/30 22:08:11;;;;;;;22.92;5.82;;;10.80;99.90;;;;;;6123401;23;20010;-79
2023/03/30 22:10:38;;;;;;;24.25;6.53;;;10.90;99.90;;;;;;6122851;23;20013;-79
2023/03/30 22:13:04;;;;;;;30.35;6.68;;;10.90;99.90;;;;;;6122832;23;20014;-78
2023/03/30 22:15:30;;;;;;;26.50;6.22;;;10.90;99.90;;;;;;6124212;23;20018;-78
2023/03/30 22:17:56;;;;;;;28.60;6.30;;;10.90;99.90;;;;;;6122903;23;20286;-78
2023/03/30 22:20:22;;;;;;;24.00;6.40;;;10.90;99.90;;;;;;6122667;23;20281;-78
2023/03/30 22:22:47;;;;;;;32.70;7.20;;;10.90;99.90;;;;;;6122855;23;20107;-78
2023/03/30 22:25:17;;;;;;;35.83;6.78;;;10.90;99.90;;;;;;6098187;23;20081;-78
2023/03/30 22:27:44;;;;;;;29.23;5.57;;;10.90;99.90;;;;;;6122764;23;20014;-79
2023/03/30 22:30:10;;;;;;;32.50;6.85;;;11.00;99.90;;;;;;6097665;23;20005;-79
2023/03/30 22:32:36;;;;;;;31.00;6.30;;;10.90;99.90;;;;;;6122799;23;20014;-79
2023/03/30 22:35:01;;;;;;;30.05;7.70;;;10.90;99.90;;;;;;6123122;23;20385;-79
2023/03/30 22:37:28;;;;;;;34.17;6.47;;;11.00;99.90;;;;;;6098244;23;20014;-79
2023/03/30 22:39:54;;;;;;;29.60;6.32;;;10.90;99.90;;;;;;6124169;23;20025;-78
2023/03/30 22:42:20;;;;;;;33.90;6.78;;;10.90;99.90;;;;;;6097939;23;20035;-79
2023/03/30 22:44:45;;;;;;;26.58;5.97;;;10.90;99.90;;;;;;6097567;23;20381;-78
2023/03/30 22:47:11;;;;;;;32.72;6.47;;;10.90;99.90;;;;;;6098191;23;20065;-78
2023/03/30 22:49:38;;;;;;;34.92;7.03;;;10.90;99.90;;;;;;6122410;23;20017;-78
2023/03/30 22:52:05;;;;;;;26.05;6.22;;;10.80;99.90;;;;;;6122306;23;20021;-78
2023/03/30 22:54:31;;;;;;;25.00;6.35;;;10.70;99.90;;;;;;6098446;23;20017;-78
2023/03/30 22:56:58;;;;;;;26.25;6.07;;;10.70;99.90;;;;;;6098016;23;20073;-78
2023/03/30 22:59:24;;;;;;;27.23;6.15;;;10.80;99.90;;;;;;6123820;23;20013;-79
2023/03/30 23:01:50;;;;;;;22.00;6.13;;;10.70;99.90;;;;;;6097994;23;20013;-79
2023/03/30 23:04:15;;;;;;;31.10;6.43;;;10.80;99.90;;;;;;6097779;23;20472;-78
2023/03/30 23:06:42;;;;;;;32.10;6.65;;;10.60;99.90;;;;;;6122476;23;20017;-79
2023/03/30 23:09:08;;;;;;;34.03;7.15;;;10.50;99.90;;;;;;6122280;23;20009;-79
2023/03/30 23:11:33;;;;;;;26.17;6.10;;;10.60;99.90;;;;;;6124311;23;20014;-78
2023/03/30 23:14:03;;;;;;;28.95;7.20;;;10.60;99.90;;;;;;6121732;23;20025;-79
2023/03/30 23:16:32;;;;;;;31.75;6.45;;;10.50;99.90;;;;;;6098091;23;20018;-79
2023/03/30 23:18:57;;;;;;;34.60;7.15;;;10.50;99.90;;;;;;6122659;23;20048;-79
2023/03/30 23:21:23;;;;;;;27.50;7.07;;;10.50;99.90;;;;;;6122507;23;20625;-79
2023/03/30 23:23:49;;;;;;;31.95;6.70;;;10.30;99.90;;;;;;6122206;23;20464;-79
2023/03/30 23:26:15;;;;;;;34.45;6.95;;;10.30;99.90;;;;;;6124219;23;20014;-79
2023/03/30 23:28:41;;;;;;;29.65;7.40;;;10.50;99.90;;;;;;6123455;23;20013;-78
2023/03/30 23:31:13;;;;;;;34.50;7.25;;;10.20;99.90;;;;;;6097878;23;20086;-79
2023/03/30 23:33:40;;;;;;;33.90;7.30;;;10.20;99.90;;;;;;6122614;23;20337;-79
2023/03/30 23:36:06;;;;;;;31.70;7.50;;;10.10;99.90;;;;;;6124064;23;20018;-79
2023/03/30 23:38:34;;;;;;;28.15;6.53;;;10.10;99.90;;;;;;6122231;23;20021;-79
2023/03/30 23:41:00;;;;;;;27.15;6.70;;;10.10;99.90;;;;;;6124156;23;20085;-79
2023/03/30 23:43:26;;;;;;;31.10;7.15;;;10.10;99.90;;;;;;6121305;23;20445;-78
2023/03/30 23:45:52;;;;;;;29.75;7.18;;;10.00;99.90;;;;;;6123991;23;20151;-79
2023/03/30 23:48:18;;;;;;;33.10;7.68;;;10.00;99.90;;;;;;6121983;23;20083;-79
2023/03/30 23:50:47;;;;;;;33.42;6.68;;;10.00;99.90;;;;;;6124121;23;20445;-78
2023/03/30 23:53:18;;;;;;;35.65;7.05;;;9.90;99.90;;;;;;6151447;23;20017;-79
2023/03/30 23:55:44;;;;;;;33.22;7.32;;;10.10;99.90;;;;;;6155254;23;20515;-78
2023/03/30 23:58:09;;;;;;;35.65;7.80;;;9.90;99.90;;;;;;6128420;23;20013;-79
